sensor_id;sensor_type;location;lat;lon;timestamp;temperature;humidity
19561;DHT22;9927;47.792;10.616;2023-04-24T03:03:00;9.20;99.90
19561;DHT22;9927;47.792;10.616;2023-04-24T03:05:27;9.30;99.90
19561;DHT22;9927;47.792;10.616;2023-04-24T03:07:54;9.30;99.90
19561;DHT22;9927;47.792;10.616;2023-04-24T03:10:22;9.30;99.90
19561;DHT22;9927;47.792;10.616;2023-04-24T03:12:52;9.30;99.90
19561;DHT22;9927;47.792;10.616;2023-04-24T03:15:19;9.30;99.90
19561;DHT22;9927;47.792;10.616;2023-04-24T03:17:46;9.30;99.90
19561;DHT22;9927;47.792;10.616;2023-04-24T03:20:14;9.20;99.90
19561;DHT22;9927;47.792;10.616;2023-04-24T03:22:41;9.30;99.90
19561;DHT22;9927;47.792;10.616;2023-04-24T03:25:09;9.20;99.90
19561;DHT22;9927;47.792;10.616;2023-04-24T03:27:36;9.10;99.90
19561;DHT22;9927;47.792;10.616;2023-04-24T03:30:05;9.00;99.90
19561;DHT22;9927;47.792;10.616;2023-04-24T03:32:33;9.00;99.90
19561;DHT22;9927;47.792;10.616;2023-04-24T03:35:00;9.10;99.90
19561;DHT22;9927;47.792;10.616;2023-04-24T03:37:27;9.10;99.90
19561;DHT22;9927;47.792;10.616;2023-04-24T03:39:54;9.10;99.90
19561;DHT22;9927;47.792;10.616;2023-04-24T03:42:22;9.10;99.90
19561;DHT22;9927;47.792;10.616;2023-04-24T03:44:49;9.10;99.90
19561;DHT22;9927;47.792;10.616;2023-04-24T03:47:16;9.10;99.90
19561;DHT22;9927;47.792;10.616;2023-04-24T03:49:44;9.20;99.90
19561;DHT22;9927;47.792;10.616;2023-04-24T03:52:11;9.20;99.90
19561;DHT22;9927;47.792;10.616;2023-04-24T03:54:38;9.10;99.90
19561;DHT22;9927;47.792;10.616;2023-04-24T03:57:05;9.00;99.90
19561;DHT22;9927;47.792;10.616;2023-04-24T03:59:32;8.90;99.90
19561;DHT22;9927;47.792;10.616;2023-04-24T04:02:00;8.90;99.90
19561;DHT22;9927;47.792;10.616;2023-04-24T04:04:27;9.00;99.90
19561;DHT22;9927;47.792;10.616;2023-04-24T04:06:54;8.90;99.90
19561;DHT22;9927;47.792;10.616;2023-04-24T04:09:21;8.90;99.90
19561;DHT22;9927;47.792;10.616;2023-04-24T04:11:49;8.90;99.90
19561;DHT22;9927;47.792;10.616;2023-04-24T04:14:16;8.90;99.90
19561;DHT22;9927;47.792;10.616;2023-04-24T04:16:43;8.90;99.90
19561;DHT22;9927;47.792;10.616;2023-04-24T04:19:10;8.90;99.90
19561;DHT22;9927;47.792;10.616;2023-04-24T04:21:37;8.90;99.90
19561;DHT22;9927;47.792;10.616;2023-04-24T04:24:05;8.90;99.90
19561;DHT22;9927;47.792;10.616;2023-04-24T04:26:34;8.90;99.90
19561;DHT22;9927;47.792;10.616;2023-04-24T04:29:02;8.90;99.90
19561;DHT22;9927;47.792;10.616;2023-04-24T04:31:30;9.00;99.90
19561;DHT22;9927;47.792;10.616;2023-04-24T04:33:57;9.10;99.90
19561;DHT22;9927;47.792;10.616;2023-04-24T04:36:25;8.90;99.90
19561;DHT22;9927;47.792;10.616;2023-04-24T04:38:52;8.90;99.90
19561;DHT22;9927;47.792;10.616;2023-04-24T04:41:21;8.90;99.90
19561;DHT22;9927;47.792;10.616;2023-04-24T04:43:49;9.00;99.90
19561;DHT22;9927;47.792;10.616;2023-04-24T04:46:16;9.00;99.90
19561;DHT22;9927;47.792;10.616;2023-04-24T04:48:44;9.10;99.90
19561;DHT22;9927;47.792;10.616;2023-04-24T04:51:12;9.00;99.90
19561;DHT22;9927;47.792;10.616;2023-04-24T04:53:39;9.00;99.90
19561;DHT22;9927;47.792;10.616;2023-04-24T04:56:07;8.90;99.90
19561;DHT22;9927;47.792;10.616;2023-04-24T04:58:34;8.90;99.90
19561;DHT22;9927;47.792;10.616;2023-04-24T05:01:02;8.90;99.90
19561;DHT22;9927;47.792;10.616;2023-04-24T05:03:29;8.90;99.90
19561;DHT22;9927;47.792;10.616;2023-04-24T05:05:57;8.90;99.90
19561;DHT22;9927;47.792;10.616;2023-04-24T05:08:25;8.90;99.90
19561;DHT22;9927;47.792;10.616;2023-04-24T05:10:54;9.00;99.90
19561;DHT22;9927;47.792;10.616;2023-04-24T05:13:22;8.90;99.90
19561;DHT22;9927;47.792;10.616;2023-04-24T05:16:02;9.00;99.90
19561;DHT22;9927;47.792;10.616;2023-04-24T05:18:29;9.00;99.90
19561;DHT22;9927;47.792;10.616;2023-04-24T05:20:57;9.00;99.90
19561;DHT22;9927;47.792;10.616;2023-04-24T05:23:24;9.00;99.90
19561;DHT22;9927;47.792;10.616;2023-04-24T05:25:51;9.00;99.90
19561;DHT22;9927;47.792;10.616;2023-04-24T05:28:18;9.00;99.90
19561;DHT22;9927;47.792;10.616;2023-04-24T05:30:46;9.10;99.90
19561;DHT22;9927;47.792;10.616;2023-04-24T05:33:13;9.10;99.90
19561;DHT22;9927;47.792;10.616;2023-04-24T05:35:41;9.10;99.90
19561;DHT22;9927;47.792;10.616;2023-04-24T05:38:12;9.30;99.90
19561;DHT22;9927;47.792;10.616;2023-04-24T05:40:40;9.40;99.90
19561;DHT22;9927;47.792;10.616;2023-04-24T05:43:07;9.40;99.90
19561;DHT22;9927;47.792;10.616;2023-04-24T05:45:34;9.50;99.90
19561;DHT22;9927;47.792;10.616;2023-04-24T05:48:03;9.50;99.90
19561;DHT22;9927;47.792;10.616;2023-04-24T05:50:30;9.30;99.90
19561;DHT22;9927;47.792;10.616;2023-04-24T05:53:00;9.40;99.90
19561;DHT22;9927;47.792;10.616;2023-04-24T05:55:31;9.40;99.90
19561;DHT22;9927;47.792;10.616;2023-04-24T05:57:58;9.50;99.90
19561;DHT22;9927;47.792;10.616;2023-04-24T06:02:53;9.60;99.90
19561;DHT22;9927;47.792;10.616;2023-04-24T06:05:21;9.60;99.90
19561;DHT22;9927;47.792;10.616;2023-04-24T06:07:49;9.60;99.90
19561;DHT22;9927;47.792;10.616;2023-04-24T06:10:17;9.70;99.90
19561;DHT22;9927;47.792;10.616;2023-04-24T06:12:44;9.70;99.90
19561;DHT22;9927;47.792;10.616;2023-04-24T06:15:11;9.70;99.90
19561;DHT22;9927;47.792;10.616;2023-04-24T06:17:39;9.60;99.90
19561;DHT22;9927;47.792;10.616;2023-04-24T06:20:07;9.70;99.90
19561;DHT22;9927;47.792;10.616;2023-04-24T06:22:35;9.80;99.90
19561;DHT22;9927;47.792;10.616;2023-04-24T06:25:02;9.90;99.90
19561;DHT22;9927;47.792;10.616;2023-04-24T06:27:29;9.90;99.90
19561;DHT22;9927;47.792;10.616;2023-04-24T06:29:57;9.80;99.90
19561;DHT22;9927;47.792;10.616;2023-04-24T06:32:24;9.80;99.90
19561;DHT22;9927;47.792;10.616;2023-04-24T06:34:52;10.00;99.90
19561;DHT22;9927;47.792;10.616;2023-04-24T06:37:20;10.10;99.90
19561;DHT22;9927;47.792;10.616;2023-04-24T06:39:47;10.20;99.90
19561;DHT22;9927;47.792;10.616;2023-04-24T06:42:15;10.40;99.90
19561;DHT22;9927;47.792;10.616;2023-04-24T06:44:42;10.40;99.90
19561;DHT22;9927;47.792;10.616;2023-04-24T06:47:10;10.50;99.90
19561;DHT22;9927;47.792;10.616;2023-04-24T06:49:37;10.60;99.90
19561;DHT22;9927;47.792;10.616;2023-04-24T06:52:05;10.60;99.90
19561;DHT22;9927;47.792;10.616;2023-04-24T06:54:32;10.60;99.90
19561;DHT22;9927;47.792;10.616;2023-04-24T06:57:00;10.90;99.90
19561;DHT22;9927;47.792;10.616;2023-04-24T06:59:28;11.00;99.90
19561;DHT22;9927;47.792;10.616;2023-04-24T07:01:56;11.10;99.90
19561;DHT22;9927;47.792;10.616;2023-04-24T07:04:24;11.10;99.90
19561;DHT22;9927;47.792;10.616;2023-04-24T07:06:52;11.20;99.90
19561;DHT22;9927;47.792;10.616;2023-04-24T07:09:23;11.00;99.90
19561;DHT22;9927;47.792;10.616;2023-04-24T07:11:51;10.90;99.90
19561;DHT22;9927;47.792;10.616;2023-04-24T07:14:19;10.80;99.90
19561;DHT22;9927;47.792;10.616;2023-04-24T07:16:47;10.80;99.90
19561;DHT22;9927;47.792;10.616;2023-04-24T07:19:14;10.70;99.90
19561;DHT22;9927;47.792;10.616;2023-04-24T07:21:41;10.20;99.90
19561;DHT22;9927;47.792;10.616;2023-04-24T07:24:09;10.10;99.90
19561;DHT22;9927;47.792;10.616;2023-04-24T07:26:38;10.40;99.90
19561;DHT22;9927;47.792;10.616;2023-04-24T07:29:07;10.30;99.90
19561;DHT22;9927;47.792;10.616;2023-04-24T07:31:34;10.40;99.90
19561;DHT22;9927;47.792;10.616;2023-04-24T07:34:02;10.40;99.90
19561;DHT22;9927;47.792;10.616;2023-04-24T07:36:29;10.30;99.90
19561;DHT22;9927;47.792;10.616;2023-04-24T07:38:57;10.30;99.90
19561;DHT22;9927;47.792;10.616;2023-04-24T07:41:24;10.60;99.90
19561;DHT22;9927;47.792;10.616;2023-04-24T07:43:51;10.60;99.90
19561;DHT22;9927;47.792;10.616;2023-04-24T07:46:20;10.80;99.90
19561;DHT22;9927;47.792;10.616;2023-04-24T07:48:48;10.70;99.90
19561;DHT22;9927;47.792;10.616;2023-04-24T07:51:31;10.90;99.90
19561;DHT22;9927;47.792;10.616;2023-04-24T07:54:01;11.10;99.90
19561;DHT22;9927;47.792;10.616;2023-04-24T07:56:28;11.40;99.90
19561;DHT22;9927;47.792;10.616;2023-04-24T07:58:58;11.60;99.90
19561;DHT22;9927;47.792;10.616;2023-04-24T08:01:25;12.00;99.90
19561;DHT22;9927;47.792;10.616;2023-04-24T08:03:53;12.10;99.90
19561;DHT22;9927;47.792;10.616;2023-04-24T08:06:20;12.10;99.90
19561;DHT22;9927;47.792;10.616;2023-04-24T08:08:48;12.00;99.90
19561;DHT22;9927;47.792;10.616;2023-04-24T08:11:15;12.10;99.90
19561;DHT22;9927;47.792;10.616;2023-04-24T08:13:42;12.20;99.90
19561;DHT22;9927;47.792;10.616;2023-04-24T08:16:09;11.80;99.90
19561;DHT22;9927;47.792;10.616;2023-04-24T08:18:37;11.70;99.90
19561;DHT22;9927;47.792;10.616;2023-04-24T08:21:04;11.90;99.90
19561;DHT22;9927;47.792;10.616;2023-04-24T08:23:31;12.00;99.90
19561;DHT22;9927;47.792;10.616;2023-04-24T08:25:59;12.20;99.90
19561;DHT22;9927;47.792;10.616;2023-04-24T08:28:26;11.80;99.90
19561;DHT22;9927;47.792;10.616;2023-04-24T08:30:53;12.30;99.90
19561;DHT22;9927;47.792;10.616;2023-04-24T08:33:23;12.30;99.90
19561;DHT22;9927;47.792;10.616;2023-04-24T08:35:50;12.50;99.90
19561;DHT22;9927;47.792;10.616;2023-04-24T08:38:17;12.90;99.90
19561;DHT22;9927;47.792;10.616;2023-04-24T08:40:44;12.40;99.90
19561;DHT22;9927;47.792;10.616;2023-04-24T08:43:16;12.50;99.90
19561;DHT22;9927;47.792;10.616;2023-04-24T08:45:43;12.50;99.90
19561;DHT22;9927;47.792;10.616;2023-04-24T08:48:11;12.50;99.90
19561;DHT22;9927;47.792;10.616;2023-04-24T08:50:57;12.90;99.90
19561;DHT22;9927;47.792;10.616;2023-04-24T08:53:26;12.90;99.90
19561;DHT22;9927;47.792;10.616;2023-04-24T08:55:55;12.80;99.90
19561;DHT22;9927;47.792;10.616;2023-04-24T08:58:25;12.80;99.90
19561;DHT22;9927;47.792;10.616;2023-04-24T09:00:56;12.80;99.90
19561;DHT22;9927;47.792;10.616;2023-04-24T09:03:23;12.80;99.90
19561;DHT22;9927;47.792;10.616;2023-04-24T09:05:52;13.00;99.90
19561;DHT22;9927;47.792;10.616;2023-04-24T09:08:24;13.00;99.90
19561;DHT22;9927;47.792;10.616;2023-04-24T09:10:52;12.90;99.90
19561;DHT22;9927;47.792;10.616;2023-04-24T09:13:22;13.00;99.90
19561;DHT22;9927;47.792;10.616;2023-04-24T09:15:49;13.10;99.90
19561;DHT22;9927;47.792;10.616;2023-04-24T09:18:17;13.10;99.90
19561;DHT22;9927;47.792;10.616;2023-04-24T09:21:04;13.10;99.90
19561;DHT22;9927;47.792;10.616;2023-04-24T09:23:32;13.20;99.90
19561;DHT22;9927;47.792;10.616;2023-04-24T09:26:02;13.40;99.90
19561;DHT22;9927;47.792;10.616;2023-04-24T09:28:31;13.70;99.90
19561;DHT22;9927;47.792;10.616;2023-04-24T09:31:14;13.30;99.90
19561;DHT22;9927;47.792;10.616;2023-04-24T09:33:54;13.30;99.90
19561;DHT22;9927;47.792;10.616;2023-04-24T09:36:35;13.30;99.90
19561;DHT22;9927;47.792;10.616;2023-04-24T09:39:08;13.00;99.90
19561;DHT22;9927;47.792;10.616;2023-04-24T09:41:44;12.90;99.90
19561;DHT22;9927;47.792;10.616;2023-04-24T09:44:16;12.80;99.90
19561;DHT22;9927;47.792;10.616;2023-04-24T09:46:46;13.10;99.90
19561;DHT22;9927;47.792;10.616;2023-04-24T09:49:16;13.70;99.90
19561;DHT22;9927;47.792;10.616;2023-04-24T09:51:44;14.10;99.90
19561;DHT22;9927;47.792;10.616;2023-04-24T09:54:19;14.20;99.90
19561;DHT22;9927;47.792;10.616;2023-04-24T09:56:50;14.10;99.90
19561;DHT22;9927;47.792;10.616;2023-04-24T09:59:19;14.10;99.90
19561;DHT22;9927;47.792;10.616;2023-04-24T10:01:47;13.70;99.90
19561;DHT22;9927;47.792;10.616;2023-04-24T10:04:23;13.70;99.90
19561;DHT22;9927;47.792;10.616;2023-04-24T10:06:53;14.00;99.90
19561;DHT22;9927;47.792;10.616;2023-04-24T10:09:24;13.90;99.90
19561;DHT22;9927;47.792;10.616;2023-04-24T10:11:54;13.10;99.90
19561;DHT22;9927;47.792;10.616;2023-04-24T10:14:25;13.00;99.90
19561;DHT22;9927;47.792;10.616;2023-04-24T10:16:56;12.50;99.90
19561;DHT22;9927;47.792;10.616;2023-04-24T10:19:26;12.50;99.90
19561;DHT22;9927;47.792;10.616;2023-04-24T10:21:53;12.60;99.90
19561;DHT22;9927;47.792;10.616;2023-04-24T10:24:22;12.60;99.90
19561;DHT22;9927;47.792;10.616;2023-04-24T10:26:49;12.50;99.90
19561;DHT22;9927;47.792;10.616;2023-04-24T10:29:18;12.00;99.90
19561;DHT22;9927;47.792;10.616;2023-04-24T10:31:45;11.90;99.90
19561;DHT22;9927;47.792;10.616;2023-04-24T10:34:16;12.00;99.90
19561;DHT22;9927;47.792;10.616;2023-04-24T10:37:02;11.80;99.90
19561;DHT22;9927;47.792;10.616;2023-04-24T10:39:30;12.00;99.90
19561;DHT22;9927;47.792;10.616;2023-04-24T10:42:00;12.10;99.90
19561;DHT22;9927;47.792;10.616;2023-04-24T10:44:36;12.20;99.90
19561;DHT22;9927;47.792;10.616;2023-04-24T10:47:03;12.20;99.90
19561;DHT22;9927;47.792;10.616;2023-04-24T10:49:32;12.20;99.90
19561;DHT22;9927;47.792;10.616;2023-04-24T10:52:04;12.40;99.90
19561;DHT22;9927;47.792;10.616;2023-04-24T10:54:34;12.30;99.90
19561;DHT22;9927;47.792;10.616;2023-04-24T10:59:46;12.00;99.90
19561;DHT22;9927;47.792;10.616;2023-04-24T11:02:17;11.70;99.90
19561;DHT22;9927;47.792;10.616;2023-04-24T11:04:45;11.70;99.90
19561;DHT22;9927;47.792;10.616;2023-04-24T11:07:13;11.80;99.90
19561;DHT22;9927;47.792;10.616;2023-04-24T11:09:42;11.90;99.90
19561;DHT22;9927;47.792;10.616;2023-04-24T11:12:11;12.00;99.90
19561;DHT22;9927;47.792;10.616;2023-04-24T11:17:36;11.80;99.90
19561;DHT22;9927;47.792;10.616;2023-04-24T11:20:10;11.70;99.90
19561;DHT22;9927;47.792;10.616;2023-04-24T11:22:54;11.70;99.90
19561;DHT22;9927;47.792;10.616;2023-04-24T11:25:23;11.60;99.90
19561;DHT22;9927;47.792;10.616;2023-04-24T11:27:50;11.80;99.90
19561;DHT22;9927;47.792;10.616;2023-04-24T11:30:29;12.10;99.90
19561;DHT22;9927;47.792;10.616;2023-04-24T11:33:02;12.10;99.90
19561;DHT22;9927;47.792;10.616;2023-04-24T11:35:35;12.10;99.90
19561;DHT22;9927;47.792;10.616;2023-04-24T11:38:04;12.40;99.90
19561;DHT22;9927;47.792;10.616;2023-04-24T11:40:37;12.60;99.90
19561;DHT22;9927;47.792;10.616;2023-04-24T11:43:07;12.60;99.90
19561;DHT22;9927;47.792;10.616;2023-04-24T11:45:35;12.60;99.90
19561;DHT22;9927;47.792;10.616;2023-04-24T11:48:03;12.70;99.90
19561;DHT22;9927;47.792;10.616;2023-04-24T11:50:30;13.10;99.90
19561;DHT22;9927;47.792;10.616;2023-04-24T11:52:58;13.10;99.90
19561;DHT22;9927;47.792;10.616;2023-04-24T11:55:28;13.40;99.90
19561;DHT22;9927;47.792;10.616;2023-04-24T11:57:58;13.60;99.90
19561;DHT22;9927;47.792;10.616;2023-04-24T12:00:27;13.70;99.90
19561;DHT22;9927;47.792;10.616;2023-04-24T12:03:08;13.60;99.90
19561;DHT22;9927;47.792;10.616;2023-04-24T12:05:36;13.80;99.90
19561;DHT22;9927;47.792;10.616;2023-04-24T12:08:04;13.30;99.90
19561;DHT22;9927;47.792;10.616;2023-04-24T12:10:33;13.10;99.90
19561;DHT22;9927;47.792;10.616;2023-04-24T12:13:02;13.10;99.90
19561;DHT22;9927;47.792;10.616;2023-04-24T12:15:29;12.70;99.90
19561;DHT22;9927;47.792;10.616;2023-04-24T12:17:57;12.30;99.90
19561;DHT22;9927;47.792;10.616;2023-04-24T12:20:30;12.20;99.90
19561;DHT22;9927;47.792;10.616;2023-04-24T12:22:59;12.10;99.90
19561;DHT22;9927;47.792;10.616;2023-04-24T12:25:31;12.50;99.90
19561;DHT22;9927;47.792;10.616;2023-04-24T12:30:35;13.30;99.90
19561;DHT22;9927;47.792;10.616;2023-04-24T12:33:05;13.30;99.90
19561;DHT22;9927;47.792;10.616;2023-04-24T12:35:33;13.60;99.90
19561;DHT22;9927;47.792;10.616;2023-04-24T12:38:09;13.60;99.90
19561;DHT22;9927;47.792;10.616;2023-04-24T12:40:36;13.80;99.90
19561;DHT22;9927;47.792;10.616;2023-04-24T12:43:17;13.70;99.90
19561;DHT22;9927;47.792;10.616;2023-04-24T12:45:47;13.80;99.90
19561;DHT22;9927;47.792;10.616;2023-04-24T12:48:15;13.90;99.90
19561;DHT22;9927;47.792;10.616;2023-04-24T12:50:44;13.40;99.90
19561;DHT22;9927;47.792;10.616;2023-04-24T12:53:14;13.40;99.90
19561;DHT22;9927;47.792;10.616;2023-04-24T12:55:42;13.50;99.90
19561;DHT22;9927;47.792;10.616;2023-04-24T12:58:11;13.40;99.90
19561;DHT22;9927;47.792;10.616;2023-04-24T13:00:39;13.50;99.90
19561;DHT22;9927;47.792;10.616;2023-04-24T13:03:06;13.60;99.90
19561;DHT22;9927;47.792;10.616;2023-04-24T13:05:33;13.70;99.90
19561;DHT22;9927;47.792;10.616;2023-04-24T13:08:01;13.70;99.90
19561;DHT22;9927;47.792;10.616;2023-04-24T13:10:28;13.30;99.90
19561;DHT22;9927;47.792;10.616;2023-04-24T13:12:56;13.30;99.90
19561;DHT22;9927;47.792;10.616;2023-04-24T13:15:24;13.30;99.90
19561;DHT22;9927;47.792;10.616;2023-04-24T13:17:51;13.10;99.90
19561;DHT22;9927;47.792;10.616;2023-04-24T13:20:18;12.80;99.90
19561;DHT22;9927;47.792;10.616;2023-04-24T13:22:46;12.80;99.90
19561;DHT22;9927;47.792;10.616;2023-04-24T13:25:14;12.60;99.90
19561;DHT22;9927;47.792;10.616;2023-04-24T13:27:44;12.30;99.90
19561;DHT22;9927;47.792;10.616;2023-04-24T13:30:11;12.50;99.90
19561;DHT22;9927;47.792;10.616;2023-04-24T13:32:39;12.90;99.90
19561;DHT22;9927;47.792;10.616;2023-04-24T13:35:06;13.20;99.90
19561;DHT22;9927;47.792;10.616;2023-04-24T13:37:34;13.50;99.90
19561;DHT22;9927;47.792;10.616;2023-04-24T13:40:01;13.90;99.90
19561;DHT22;9927;47.792;10.616;2023-04-24T13:42:28;14.00;99.90
19561;DHT22;9927;47.792;10.616;2023-04-24T13:44:55;14.10;99.90
19561;DHT22;9927;47.792;10.616;2023-04-24T13:47:22;14.30;99.90
19561;DHT22;9927;47.792;10.616;2023-04-24T13:49:50;14.30;98.70
19561;DHT22;9927;47.792;10.616;2023-04-24T13:52:17;14.50;98.10
19561;DHT22;9927;47.792;10.616;2023-04-24T13:54:44;14.50;99.30
19561;DHT22;9927;47.792;10.616;2023-04-24T13:57:11;14.30;99.30
19561;DHT22;9927;47.792;10.616;2023-04-24T13:59:39;14.20;97.80
19561;DHT22;9927;47.792;10.616;2023-04-24T14:02:07;14.10;98.00
19561;DHT22;9927;47.792;10.616;2023-04-24T14:04:34;14.20;98.20
19561;DHT22;9927;47.792;10.616;2023-04-24T14:07:01;14.60;98.00
19561;DHT22;9927;47.792;10.616;2023-04-24T14:09:29;14.70;98.00
19561;DHT22;9927;47.792;10.616;2023-04-24T14:11:56;15.10;97.10
19561;DHT22;9927;47.792;10.616;2023-04-24T14:14:23;15.00;95.20
19561;DHT22;9927;47.792;10.616;2023-04-24T14:16:51;14.90;96.90
19561;DHT22;9927;47.792;10.616;2023-04-24T14:19:18;14.80;97.60
19561;DHT22;9927;47.792;10.616;2023-04-24T14:21:45;14.00;94.70
19561;DHT22;9927;47.792;10.616;2023-04-24T14:24:12;14.00;96.80
19561;DHT22;9927;47.792;10.616;2023-04-24T14:26:40;14.00;97.40
19561;DHT22;9927;47.792;10.616;2023-04-24T14:29:07;14.50;98.40
19561;DHT22;9927;47.792;10.616;2023-04-24T14:31:42;14.30;97.70
19561;DHT22;9927;47.792;10.616;2023-04-24T14:34:09;14.30;98.20
19561;DHT22;9927;47.792;10.616;2023-04-24T14:36:37;14.40;97.00
19561;DHT22;9927;47.792;10.616;2023-04-24T14:39:04;14.30;96.50
19561;DHT22;9927;47.792;10.616;2023-04-24T14:41:34;14.30;95.50
19561;DHT22;9927;47.792;10.616;2023-04-24T14:44:03;14.20;96.10
19561;DHT22;9927;47.792;10.616;2023-04-24T14:46:31;14.30;95.10
19561;DHT22;9927;47.792;10.616;2023-04-24T14:48:59;14.20;95.20
19561;DHT22;9927;47.792;10.616;2023-04-24T14:51:26;13.60;96.60
19561;DHT22;9927;47.792;10.616;2023-04-24T14:53:54;13.60;96.80
19561;DHT22;9927;47.792;10.616;2023-04-24T14:56:21;13.60;99.10
19561;DHT22;9927;47.792;10.616;2023-04-24T14:58:48;13.70;98.70
19561;DHT22;9927;47.792;10.616;2023-04-24T15:01:15;13.40;97.10
19561;DHT22;9927;47.792;10.616;2023-04-24T15:03:44;13.40;97.80
19561;DHT22;9927;47.792;10.616;2023-04-24T15:06:12;13.20;98.30
19561;DHT22;9927;47.792;10.616;2023-04-24T15:08:39;13.00;99.70
19561;DHT22;9927;47.792;10.616;2023-04-24T15:11:07;13.50;98.40
19561;DHT22;9927;47.792;10.616;2023-04-24T15:13:34;13.50;98.00
19561;DHT22;9927;47.792;10.616;2023-04-24T15:16:02;13.50;98.00
19561;DHT22;9927;47.792;10.616;2023-04-24T15:18:29;13.50;98.10
19561;DHT22;9927;47.792;10.616;2023-04-24T15:20:56;12.80;95.60
19561;DHT22;9927;47.792;10.616;2023-04-24T15:23:24;12.80;96.10
19561;DHT22;9927;47.792;10.616;2023-04-24T15:25:51;12.70;98.20
19561;DHT22;9927;47.792;10.616;2023-04-24T15:28:18;12.80;98.20
19561;DHT22;9927;47.792;10.616;2023-04-24T15:30:45;13.20;98.10
19561;DHT22;9927;47.792;10.616;2023-04-24T15:33:13;13.20;98.50
19561;DHT22;9927;47.792;10.616;2023-04-24T15:35:40;13.10;99.20
19561;DHT22;9927;47.792;10.616;2023-04-24T15:38:08;13.10;99.20
19561;DHT22;9927;47.792;10.616;2023-04-24T15:40:35;13.40;99.90
19561;DHT22;9927;47.792;10.616;2023-04-24T15:43:02;13.70;99.10
19561;DHT22;9927;47.792;10.616;2023-04-24T15:45:29;13.70;99.30
19561;DHT22;9927;47.792;10.616;2023-04-24T15:47:57;13.70;98.70
19561;DHT22;9927;47.792;10.616;2023-04-24T15:50:25;13.70;99.60
19561;DHT22;9927;47.792;10.616;2023-04-24T15:52:53;13.50;99.50
19561;DHT22;9927;47.792;10.616;2023-04-24T15:55:20;13.40;99.90
19561;DHT22;9927;47.792;10.616;2023-04-24T15:57:47;13.30;99.90
19561;DHT22;9927;47.792;10.616;2023-04-24T16:00:15;13.30;99.90
19561;DHT22;9927;47.792;10.616;2023-04-24T16:02:42;13.00;99.90
19561;DHT22;9927;47.792;10.616;2023-04-24T16:05:10;12.80;99.90
19561;DHT22;9927;47.792;10.616;2023-04-24T16:07:38;12.30;99.90
19561;DHT22;9927;47.792;10.616;2023-04-24T16:10:06;11.90;99.90
19561;DHT22;9927;47.792;10.616;2023-04-24T16:12:33;11.20;99.90
19561;DHT22;9927;47.792;10.616;2023-04-24T16:15:00;10.70;99.90
19561;DHT22;9927;47.792;10.616;2023-04-24T16:17:28;10.50;99.90
19561;DHT22;9927;47.792;10.616;2023-04-24T16:19:55;10.30;99.90
19561;DHT22;9927;47.792;10.616;2023-04-24T16:22:22;10.60;99.90
19561;DHT22;9927;47.792;10.616;2023-04-24T16:24:50;10.60;99.90
19561;DHT22;9927;47.792;10.616;2023-04-24T16:27:17;10.60;99.90
19561;DHT22;9927;47.792;10.616;2023-04-24T16:29:44;10.50;99.90
19561;DHT22;9927;47.792;10.616;2023-04-24T16:32:11;10.50;99.90
19561;DHT22;9927;47.792;10.616;2023-04-24T16:34:38;10.60;99.90
19561;DHT22;9927;47.792;10.616;2023-04-24T16:37:06;10.70;99.90
19561;DHT22;9927;47.792;10.616;2023-04-24T16:39:34;10.90;99.90
19561;DHT22;9927;47.792;10.616;2023-04-24T16:42:01;10.80;99.90
19561;DHT22;9927;47.792;10.616;2023-04-24T16:44:29;10.80;99.90
19561;DHT22;9927;47.792;10.616;2023-04-24T16:46:56;10.60;99.90
19561;DHT22;9927;47.792;10.616;2023-04-24T16:49:24;10.60;99.90
19561;DHT22;9927;47.792;10.616;2023-04-24T16:51:52;10.60;99.90
19561;DHT22;9927;47.792;10.616;2023-04-24T16:54:19;10.60;99.90
19561;DHT22;9927;47.792;10.616;2023-04-24T16:56:46;10.60;99.90
19561;DHT22;9927;47.792;10.616;2023-04-24T16:59:14;10.60;99.90
19561;DHT22;9927;47.792;10.616;2023-04-24T17:01:41;10.70;99.90
19561;DHT22;9927;47.792;10.616;2023-04-24T17:04:09;10.70;99.90
19561;DHT22;9927;47.792;10.616;2023-04-24T17:06:36;10.60;99.90
19561;DHT22;9927;47.792;10.616;2023-04-24T17:09:04;10.60;99.90
19561;DHT22;9927;47.792;10.616;2023-04-24T17:11:31;10.50;99.90
19561;DHT22;9927;47.792;10.616;2023-04-24T17:13:58;10.50;99.90
19561;DHT22;9927;47.792;10.616;2023-04-24T17:16:26;10.40;99.90
19561;DHT22;9927;47.792;10.616;2023-04-24T17:18:53;10.30;99.90
19561;DHT22;9927;47.792;10.616;2023-04-24T17:21:20;10.20;99.90
19561;DHT22;9927;47.792;10.616;2023-04-24T17:23:48;10.30;99.90
19561;DHT22;9927;47.792;10.616;2023-04-24T17:26:15;10.50;99.90
19561;DHT22;9927;47.792;10.616;2023-04-24T17:28:42;10.50;99.90
19561;DHT22;9927;47.792;10.616;2023-04-24T17:31:09;10.50;99.90
19561;DHT22;9927;47.792;10.616;2023-04-24T17:33:37;10.60;99.90
19561;DHT22;9927;47.792;10.616;2023-04-24T17:36:04;10.60;99.90
19561;DHT22;9927;47.792;10.616;2023-04-24T17:38:33;10.60;99.90
19561;DHT22;9927;47.792;10.616;2023-04-24T17:41:01;10.50;99.90
19561;DHT22;9927;47.792;10.616;2023-04-24T17:43:28;10.50;99.90
19561;DHT22;9927;47.792;10.616;2023-04-24T17:45:58;10.40;99.90
19561;DHT22;9927;47.792;10.616;2023-04-24T17:48:26;10.30;99.90
19561;DHT22;9927;47.792;10.616;2023-04-24T17:50:53;10.10;99.90
19561;DHT22;9927;47.792;10.616;2023-04-24T17:53:20;10.10;99.90
19561;DHT22;9927;47.792;10.616;2023-04-24T17:55:51;10.00;99.90
19561;DHT22;9927;47.792;10.616;2023-04-24T17:58:20;9.90;99.90
19561;DHT22;9927;47.792;10.616;2023-04-24T18:03:15;9.80;99.90
19561;DHT22;9927;47.792;10.616;2023-04-24T18:05:42;9.80;99.90
19561;DHT22;9927;47.792;10.616;2023-04-24T18:08:09;9.70;99.90
19561;DHT22;9927;47.792;10.616;2023-04-24T18:10:38;9.60;99.90
19561;DHT22;9927;47.792;10.616;2023-04-24T18:13:05;9.50;99.90
19561;DHT22;9927;47.792;10.616;2023-04-24T18:15:33;9.50;99.90
19561;DHT22;9927;47.792;10.616;2023-04-24T18:18:01;9.40;99.90
19561;DHT22;9927;47.792;10.616;2023-04-24T18:22:56;9.20;99.90
19561;DHT22;9927;47.792;10.616;2023-04-24T18:25:24;9.20;99.90
19561;DHT22;9927;47.792;10.616;2023-04-24T18:27:54;9.20;99.90
19561;DHT22;9927;47.792;10.616;2023-04-24T18:30:24;8.90;99.90
19561;DHT22;9927;47.792;10.616;2023-04-24T18:32:56;8.90;99.90
19561;DHT22;9927;47.792;10.616;2023-04-24T18:35:31;8.90;99.90
19561;DHT22;9927;47.792;10.616;2023-04-24T18:37:58;8.80;99.90
19561;DHT22;9927;47.792;10.616;2023-04-24T18:40:26;8.70;99.90
19561;DHT22;9927;47.792;10.616;2023-04-24T18:42:54;8.60;99.90
19561;DHT22;9927;47.792;10.616;2023-04-24T18:45:22;8.60;99.90
19561;DHT22;9927;47.792;10.616;2023-04-24T18:47:49;8.60;99.90
19561;DHT22;9927;47.792;10.616;2023-04-24T18:50:17;8.70;99.90
19561;DHT22;9927;47.792;10.616;2023-04-24T18:52:45;8.70;99.90
19561;DHT22;9927;47.792;10.616;2023-04-24T18:55:12;8.80;99.90
19561;DHT22;9927;47.792;10.616;2023-04-24T18:57:39;8.60;99.90
19561;DHT22;9927;47.792;10.616;2023-04-24T19:00:07;8.60;99.90